createdAt,value
2023-03-19T00:01:25.923Z,56.60
2023-03-19T00:03:52.543Z,57.60
2023-03-19T00:06:19.259Z,56.90
2023-03-19T00:08:46.156Z,58.70
2023-03-19T00:11:13.155Z,59.50
2023-03-19T00:13:39.822Z,58.80
2023-03-19T00:16:07.169Z,58.20
2023-03-19T00:18:33.869Z,57.50
2023-03-19T00:21:01.522Z,58.70
2023-03-19T00:23:28.099Z,59.20
2023-03-19T00:25:54.981Z,57.50
2023-03-19T00:28:21.537Z,56.80
2023-03-19T00:30:48.749Z,56.80
2023-03-19T00:33:15.393Z,58.70
2023-03-19T00:35:41.992Z,59.00
2023-03-19T00:38:08.897Z,59.50
2023-03-19T00:40:35.757Z,57.30
2023-03-19T00:43:02.350Z,57.60
2023-03-19T00:45:30.616Z,57.10
2023-03-19T00:47:57.677Z,58.20
2023-03-19T00:50:25.606Z,58.20
2023-03-19T00:52:52.390Z,56.80
2023-03-19T00:55:18.973Z,57.00
2023-03-19T00:57:46.022Z,58.90
2023-03-19T01:02:40.439Z,59.30
2023-03-19T01:05:08.140Z,60.10
2023-03-19T01:07:35.037Z,60.50
2023-03-19T01:10:01.738Z,59.50
2023-03-19T01:12:28.316Z,62.10
2023-03-19T01:14:54.873Z,59.10
2023-03-19T01:17:21.457Z,59.00
2023-03-19T01:19:48.962Z,58.60
2023-03-19T01:22:16.757Z,59.50
2023-03-19T01:24:43.420Z,60.50
2023-03-19T01:27:10.516Z,59.10
2023-03-19T01:29:37.209Z,57.60
2023-03-19T01:32:03.876Z,57.30
2023-03-19T01:34:30.645Z,58.00
2023-03-19T01:36:57.520Z,58.20
2023-03-19T01:39:24.085Z,58.00
2023-03-19T01:41:50.698Z,58.30
2023-03-19T01:44:24.526Z,58.30
2023-03-19T01:46:51.246Z,58.70
2023-03-19T01:49:19.348Z,61.40
2023-03-19T01:51:46.486Z,60.90
2023-03-19T01:54:18.789Z,59.80
2023-03-19T01:56:46.668Z,58.70
2023-03-19T01:59:28.666Z,57.80
2023-03-19T02:01:57.288Z,57.80
2023-03-19T02:04:25.394Z,58.20
2023-03-19T02:06:52.839Z,58.00
2023-03-19T02:09:19.429Z,58.10
2023-03-19T02:11:46.503Z,58.00
2023-03-19T02:14:13.439Z,58.10
2023-03-19T02:16:39.995Z,58.10
2023-03-19T02:19:08.795Z,60.30
2023-03-19T02:21:35.364Z,59.90
2023-03-19T02:24:25.137Z,60.50
2023-03-19T02:26:52.029Z,59.40
2023-03-19T02:29:18.562Z,57.90
2023-03-19T02:31:45.431Z,57.60
2023-03-19T02:34:12.014Z,57.80
2023-03-19T02:36:41.126Z,57.60
2023-03-19T02:39:09.997Z,57.60
2023-03-19T02:41:37.350Z,57.50
2023-03-19T02:44:04.719Z,57.70
2023-03-19T02:46:31.805Z,57.70
2023-03-19T02:48:58.952Z,57.50
2023-03-19T02:51:26.232Z,59.50
2023-03-19T02:53:52.819Z,59.10
2023-03-19T02:56:19.567Z,59.10
2023-03-19T02:58:46.186Z,58.30
2023-03-19T03:01:12.824Z,56.90
2023-03-19T03:03:39.418Z,56.10
2023-03-19T03:06:06.115Z,56.40
2023-03-19T03:08:33.338Z,56.60
2023-03-19T03:10:59.931Z,56.60
2023-03-19T03:13:27.167Z,56.70
2023-03-19T03:15:53.778Z,56.90
2023-03-19T03:18:20.516Z,57.10
2023-03-19T03:20:47.456Z,58.00
2023-03-19T03:23:14.008Z,58.60
2023-03-19T03:25:40.622Z,58.10
2023-03-19T03:28:07.608Z,58.00
2023-03-19T03:30:34.297Z,58.60
2023-03-19T03:33:00.935Z,58.90
2023-03-19T03:35:27.595Z,57.30
2023-03-19T03:37:54.218Z,57.00
2023-03-19T03:40:21.343Z,56.60
2023-03-19T03:42:47.947Z,56.40
2023-03-19T03:45:15.342Z,56.40
2023-03-19T03:47:42.237Z,56.80
2023-03-19T03:50:10.940Z,57.10
2023-03-19T03:52:38.249Z,58.30
2023-03-19T03:55:05.084Z,58.80
2023-03-19T03:57:31.749Z,58.90
2023-03-19T03:59:58.455Z,59.00
2023-03-19T04:02:25.219Z,57.60
2023-03-19T04:04:51.900Z,59.40
2023-03-19T04:07:18.508Z,58.80
2023-03-19T04:09:46.065Z,58.90
2023-03-19T04:12:13.398Z,58.00
2023-03-19T04:14:40.422Z,58.40
2023-03-19T04:17:07.148Z,57.50
2023-03-19T04:19:33.881Z,57.40
2023-03-19T04:22:00.437Z,57.40
2023-03-19T04:24:27.028Z,57.20
2023-03-19T04:26:53.664Z,57.20
2023-03-19T04:29:20.280Z,57.10
2023-03-19T04:31:46.966Z,57.40
2023-03-19T04:34:13.642Z,57.60
2023-03-19T04:36:40.212Z,57.40
2023-03-19T04:39:07.036Z,57.60
2023-03-19T04:41:33.612Z,57.30
2023-03-19T04:44:00.166Z,57.70
2023-03-19T04:46:26.793Z,59.80
2023-03-19T04:48:53.437Z,59.70
2023-03-19T04:51:21.542Z,58.10
2023-03-19T04:53:48.904Z,58.10
2023-03-19T04:56:16.524Z,57.60
2023-03-19T04:58:43.444Z,58.50
2023-03-19T05:01:10.080Z,57.60
2023-03-19T05:03:36.759Z,57.80
2023-03-19T05:06:03.466Z,57.40
2023-03-19T05:08:30.124Z,57.60
2023-03-19T05:10:57.211Z,57.70
2023-03-19T05:13:23.787Z,57.60
2023-03-19T05:15:52.775Z,57.50
2023-03-19T05:18:19.948Z,59.20
2023-03-19T05:20:46.580Z,59.20
2023-03-19T05:23:13.552Z,56.30
2023-03-19T05:25:40.810Z,58.30
2023-03-19T05:28:08.254Z,57.20
2023-03-19T05:30:36.039Z,58.20
2023-03-19T05:33:03.509Z,56.60
2023-03-19T05:35:30.778Z,55.90
2023-03-19T05:37:57.713Z,56.30
2023-03-19T05:40:24.340Z,57.60
2023-03-19T05:42:51.160Z,58.40
2023-03-19T05:45:17.965Z,58.10
2023-03-19T05:47:46.795Z,57.00
2023-03-19T05:50:13.418Z,57.40
2023-03-19T05:52:40.056Z,57.10
2023-03-19T05:55:06.811Z,57.60
2023-03-19T05:57:33.475Z,57.00
2023-03-19T06:00:00.602Z,56.60
2023-03-19T06:02:27.272Z,56.70
2023-03-19T06:04:53.897Z,57.30
2023-03-19T06:07:20.688Z,57.70
2023-03-19T06:09:47.296Z,57.00
2023-03-19T06:12:13.904Z,57.60
2023-03-19T06:14:40.468Z,57.60
2023-03-19T06:17:07.287Z,56.40
2023-03-19T06:19:34.016Z,56.10
2023-03-19T06:22:00.640Z,57.30
2023-03-19T06:24:27.221Z,57.70
2023-03-19T06:26:53.774Z,57.00
2023-03-19T06:29:20.460Z,56.50
2023-03-19T06:31:47.085Z,56.70
2023-03-19T06:34:13.769Z,55.50
2023-03-19T06:36:40.393Z,57.40
2023-03-19T06:39:07.015Z,57.00
2023-03-19T06:41:33.705Z,58.50
2023-03-19T06:44:00.302Z,57.80
2023-03-19T06:46:26.867Z,57.40
2023-03-19T06:48:53.487Z,58.20
2023-03-19T06:51:20.125Z,57.30
2023-03-19T06:53:46.737Z,57.50
2023-03-19T06:56:13.498Z,56.60
2023-03-19T06:58:40.320Z,57.20
2023-03-19T07:01:07.021Z,56.80
2023-03-19T07:03:33.698Z,55.60
2023-03-19T07:06:00.593Z,56.60
2023-03-19T07:08:29.827Z,57.50
2023-03-19T07:10:57.119Z,55.80
2023-03-19T07:13:23.741Z,56.60
2023-03-19T07:15:50.557Z,57.10
2023-03-19T07:18:17.197Z,56.20
2023-03-19T07:20:43.892Z,56.90
2023-03-19T07:23:10.561Z,56.30
2023-03-19T07:25:37.306Z,55.50
2023-03-19T07:28:04.386Z,55.20
2023-03-19T07:30:31.223Z,56.10
2023-03-19T07:32:58.000Z,56.00
2023-03-19T07:35:24.633Z,57.80
2023-03-19T07:37:51.482Z,57.70
2023-03-19T07:40:18.362Z,55.70
2023-03-19T07:42:45.340Z,56.10
2023-03-19T07:45:11.994Z,56.30
2023-03-19T07:47:38.709Z,56.80
2023-03-19T07:50:05.974Z,56.80
2023-03-19T07:52:32.637Z,55.70
2023-03-19T07:54:59.265Z,56.10
2023-03-19T07:57:26.403Z,57.50
2023-03-19T07:59:53.047Z,59.50
2023-03-19T08:02:22.389Z,56.80
2023-03-19T08:04:49.603Z,56.30
2023-03-19T08:07:16.884Z,56.30
2023-03-19T08:09:43.756Z,56.60
2023-03-19T08:12:10.461Z,56.20
2023-03-19T08:14:37.078Z,56.80
2023-03-19T08:17:03.690Z,57.20
2023-03-19T08:19:30.606Z,58.20
2023-03-19T08:21:57.327Z,58.70
2023-03-19T08:24:23.939Z,57.90
2023-03-19T08:26:50.780Z,57.50
2023-03-19T08:29:19.010Z,58.40
2023-03-19T08:31:46.265Z,56.90
2023-03-19T08:34:13.119Z,57.40
2023-03-19T08:36:39.722Z,57.60
2023-03-19T08:39:06.316Z,55.60
2023-03-19T08:41:32.872Z,55.60
2023-03-19T08:43:59.522Z,56.50
2023-03-19T08:46:27.613Z,56.00
2023-03-19T08:48:54.264Z,55.80
2023-03-19T08:51:21.184Z,55.80
2023-03-19T08:53:47.815Z,56.70
2023-03-19T08:56:14.411Z,56.40
2023-03-19T08:58:42.118Z,57.00
2023-03-19T09:01:10.692Z,56.00
2023-03-19T09:03:37.757Z,56.20
2023-03-19T09:06:05.265Z,56.50
2023-03-19T09:08:31.968Z,56.70
2023-03-19T09:10:58.999Z,56.60
2023-03-19T09:13:26.132Z,56.20
2023-03-19T09:15:52.988Z,56.90
2023-03-19T09:18:25.305Z,57.00
2023-03-19T09:20:52.725Z,57.40
2023-03-19T09:23:19.714Z,57.20
2023-03-19T09:25:46.271Z,56.90
2023-03-19T09:28:12.905Z,56.70
2023-03-19T09:30:39.831Z,56.70
2023-03-19T09:33:06.430Z,58.20
2023-03-19T09:35:33.747Z,58.10
2023-03-19T09:38:01.891Z,57.80
2023-03-19T09:40:47.157Z,57.50
2023-03-19T09:43:13.716Z,57.60
2023-03-19T09:45:40.500Z,57.00
2023-03-19T09:48:12.301Z,57.70
2023-03-19T09:50:38.854Z,57.30
2023-03-19T09:53:15.378Z,57.40
2023-03-19T09:55:45.667Z,57.20
2023-03-19T09:58:14.590Z,57.50
2023-03-19T10:00:42.532Z,58.20
2023-03-19T10:03:27.954Z,58.10
2023-03-19T10:06:14.198Z,57.60
2023-03-19T10:08:59.507Z,56.90
2023-03-19T10:11:26.098Z,58.60
2023-03-19T10:14:14.098Z,57.80
2023-03-19T10:16:43.208Z,59.00
2023-03-19T10:19:10.615Z,59.20
2023-03-19T10:21:50.030Z,58.10
2023-03-19T10:24:22.559Z,58.30
2023-03-19T10:26:49.779Z,57.90
2023-03-19T10:29:18.740Z,58.10
2023-03-19T10:31:49.350Z,57.50
2023-03-19T10:34:23.203Z,57.40
2023-03-19T10:36:50.018Z,57.20
2023-03-19T10:39:20.028Z,56.90
2023-03-19T10:41:51.494Z,56.60
2023-03-19T10:44:21.053Z,56.90
2023-03-19T10:46:47.588Z,56.60
2023-03-19T10:49:15.087Z,56.70
2023-03-19T10:51:48.262Z,57.00
2023-03-19T10:54:32.721Z,57.00
2023-03-19T10:57:00.303Z,56.70
2023-03-19T10:59:27.009Z,56.90
2023-03-19T11:01:57.919Z,56.50
2023-03-19T11:04:26.278Z,56.40
2023-03-19T11:06:53.612Z,56.70
2023-03-19T11:09:27.157Z,56.80
2023-03-19T11:11:57.604Z,57.00
2023-03-19T11:14:38.483Z,56.70
2023-03-19T11:17:14.175Z,56.80
2023-03-19T11:19:41.667Z,56.70
2023-03-19T11:22:09.256Z,56.60
2023-03-19T11:24:42.549Z,56.80
2023-03-19T11:27:09.989Z,56.40
2023-03-19T11:29:40.537Z,56.70
2023-03-19T11:32:22.738Z,56.60
2023-03-19T11:34:56.804Z,56.50
2023-03-19T11:37:42.108Z,56.70
2023-03-19T11:40:12.419Z,56.50
2023-03-19T11:42:45.225Z,56.50
2023-03-19T11:45:14.876Z,56.50
2023-03-19T11:48:00.628Z,56.50
2023-03-19T11:50:42.358Z,56.60
2023-03-19T11:53:15.223Z,56.70
2023-03-19T11:55:47.369Z,56.50
2023-03-19T11:58:21.713Z,57.10
2023-03-19T12:00:52.147Z,56.80
2023-03-19T12:03:37.909Z,56.70
2023-03-19T12:06:07.551Z,56.70
2023-03-19T12:08:34.100Z,56.70
2023-03-19T12:11:09.949Z,56.90
2023-03-19T12:13:55.341Z,56.50
2023-03-19T12:16:31.055Z,56.90
2023-03-19T12:19:08.712Z,56.50
2023-03-19T12:21:54.671Z,56.60
2023-03-19T12:24:28.571Z,56.50
2023-03-19T12:26:58.188Z,56.30
2023-03-19T12:29:24.830Z,56.30
2023-03-19T12:32:12.520Z,56.40
2023-03-19T12:34:58.917Z,56.50
2023-03-19T12:37:35.760Z,56.70
2023-03-19T12:40:13.919Z,56.70
2023-03-19T12:42:42.006Z,57.00
2023-03-19T12:45:15.204Z,57.00
2023-03-19T12:47:43.288Z,57.20
2023-03-19T12:50:11.741Z,57.00
2023-03-19T12:52:39.577Z,57.00
2023-03-19T12:55:06.177Z,56.50
2023-03-19T12:57:40.494Z,56.40
2023-03-19T13:00:22.159Z,56.40
2023-03-19T13:03:02.979Z,55.90
2023-03-19T13:05:33.055Z,56.10
2023-03-19T13:08:03.214Z,56.00
2023-03-19T13:10:31.801Z,55.90
2023-03-19T13:12:58.697Z,56.00
2023-03-19T13:15:33.649Z,56.00
2023-03-19T13:18:19.146Z,56.40
2023-03-19T13:20:58.083Z,57.60
2023-03-19T13:23:27.392Z,58.20
2023-03-19T13:25:57.030Z,59.30
2023-03-19T13:28:28.842Z,60.00
2023-03-19T13:30:59.907Z,59.80
2023-03-19T13:33:26.655Z,59.90
2023-03-19T13:35:55.483Z,58.80
2023-03-19T13:38:34.689Z,58.60
2023-03-19T13:41:02.187Z,58.50
2023-03-19T13:43:29.228Z,58.20
2023-03-19T13:46:05.850Z,58.90
2023-03-19T13:48:33.252Z,58.60
2023-03-19T13:51:00.801Z,58.50
2023-03-19T13:53:42.305Z,58.70
2023-03-19T13:56:22.462Z,58.80
2023-03-19T13:59:14.733Z,58.70
2023-03-19T14:01:44.560Z,58.80
2023-03-19T14:04:30.695Z,58.70
2023-03-19T14:07:17.571Z,58.60
2023-03-19T14:10:02.709Z,58.40
2023-03-19T14:12:31.871Z,58.50
2023-03-19T14:15:10.422Z,59.10
2023-03-19T14:17:38.481Z,58.90
2023-03-19T14:20:26.578Z,59.00
2023-03-19T14:23:10.934Z,59.20
2023-03-19T14:25:49.613Z,59.30
2023-03-19T14:28:18.066Z,59.20
2023-03-19T14:30:45.722Z,59.10
2023-03-19T14:33:20.334Z,59.00
2023-03-19T14:35:48.219Z,59.40
2023-03-19T14:38:19.933Z,59.90
2023-03-19T14:40:50.524Z,59.90
2023-03-19T14:43:36.015Z,60.00
2023-03-19T14:46:04.057Z,60.40
2023-03-19T14:48:30.817Z,60.70
2023-03-19T14:51:12.659Z,59.50
2023-03-19T14:53:41.523Z,59.60
2023-03-19T14:56:15.358Z,59.50
2023-03-19T14:58:49.158Z,59.90
2023-03-19T15:01:16.137Z,60.20
2023-03-19T15:03:43.059Z,60.30
2023-03-19T15:06:12.014Z,60.50
2023-03-19T15:08:40.288Z,59.80
2023-03-19T15:11:18.618Z,59.20
2023-03-19T15:13:57.627Z,59.40
2023-03-19T15:16:43.112Z,59.30
2023-03-19T15:19:10.666Z,59.20
2023-03-19T15:21:38.411Z,59.80
2023-03-19T15:24:07.115Z,59.70
2023-03-19T15:26:34.941Z,59.90
2023-03-19T15:29:04.257Z,59.60
2023-03-19T15:31:49.567Z,59.40
2023-03-19T15:34:19.898Z,59.30
2023-03-19T15:36:46.926Z,59.70
2023-03-19T15:39:16.341Z,59.50
2023-03-19T15:41:45.218Z,60.30
2023-03-19T15:44:16.717Z,60.30
2023-03-19T15:46:44.524Z,59.40
2023-03-19T15:49:26.035Z,58.80
2023-03-19T15:51:55.585Z,59.20
2023-03-19T15:54:22.396Z,59.90
2023-03-19T15:56:49.767Z,59.70
2023-03-19T15:59:17.490Z,60.00
2023-03-19T16:01:44.209Z,60.50
2023-03-19T16:04:20.886Z,60.60
2023-03-19T16:06:49.225Z,60.70
2023-03-19T16:09:30.892Z,61.40
2023-03-19T16:11:58.071Z,61.10
2023-03-19T16:14:26.532Z,60.90
2023-03-19T16:16:59.774Z,61.00
2023-03-19T16:19:32.181Z,60.80
2023-03-19T16:21:59.202Z,60.90
2023-03-19T16:24:33.643Z,60.80
2023-03-19T16:27:02.730Z,60.20
2023-03-19T16:29:31.628Z,59.80
2023-03-19T16:32:21.495Z,61.00
2023-03-19T16:34:50.800Z,61.00
2023-03-19T16:37:32.810Z,60.00
2023-03-19T16:40:23.532Z,59.50
2023-03-19T16:42:51.214Z,60.00
2023-03-19T16:45:20.780Z,60.50
2023-03-19T16:47:48.712Z,60.40
2023-03-19T16:50:16.033Z,60.50
2023-03-19T16:52:43.420Z,60.30
2023-03-19T16:55:19.599Z,60.20
2023-03-19T16:57:47.502Z,60.50
2023-03-19T17:00:14.590Z,61.00
2023-03-19T17:02:41.270Z,61.10
2023-03-19T17:05:15.654Z,61.10
2023-03-19T17:08:05.628Z,60.40
